Flight Track Log - Related Links

Times and Time Zones

All times are in EDT time to prevent confusion due to time zone crossing. See the N118JV flight status page for this flight to view local times or setup timezone preferences in your user account.

Time Position Orientation Groundspeed Altitude Reporting Facility
EDT Latitude Longitude Course Direction KTS MPH feet Rate Location/Type
Wed 10:34:01 PM 29.6647 -95.2881 309° West 138 159 400  Level Houston Center
Wed 10:35:08 PM 29.6914 -95.3256 309° West 138 159 2,100 1,453 Climbing Houston Center
Wed 10:36:09 PM 29.6933 -95.3711 273° West 147 169 3,500 1,426 Climbing Houston Center
Wed 10:37:10 PM 29.6764 -95.4139 246° West 162 186 5,000 1,302 Climbing Houston Center
Wed 10:38:18 PM 29.6461 -95.4467 223° Southwest 155 178 6,300 1,406 Climbing Houston Center
Wed 10:39:18 PM 29.6025 -95.4806 214° Southwest 158 182 8,000 1,526 Climbing Houston Center
Wed 10:40:12 PM 29.5689 -95.5036 211° Southwest 156 180 9,200 1,268 Climbing Houston Center
Wed 10:41:21 PM 29.5261 -95.5383 215° Southwest 164 189 10,600 1,292 Climbing Houston Center
Wed 10:42:22 PM 29.4869 -95.5692 214° Southwest 171 197 12,000 1,289 Climbing Houston Center
Wed 10:43:22 PM 29.4464 -95.5989 213° Southwest 173 199 13,200 1,240 Climbing Houston Center
Wed 10:44:23 PM 29.4036 -95.6328 215° Southwest 182 209 14,500 1,230 Climbing Houston Center
Wed 10:45:24 PM 29.3600 -95.6653 213° Southwest 186 214 15,700 1,180 Climbing Houston Center
Wed 10:46:25 PM 29.3164 -95.6986 214° Southwest 189 217 16,900 1,328 Climbing Houston Center
Wed 10:47:26 PM 29.2736 -95.7328 215° Southwest 188 216 18,400 984 Climbing Houston Center
Wed 10:48:27 PM 29.2286 -95.7686 215° Southwest 195 224 18,900 295 Climbing Houston Center
Wed 10:49:28 PM 29.1675 -95.7975 202° Southwest 230 265 19,000 443 Climbing Houston Center
Wed 10:50:29 PM 29.1014 -95.8194 196° South 248 285 19,800 1,082 Climbing Houston Center
Wed 10:51:30 PM 29.0544 -95.8561 214° Southwest 208 239 21,200 1,230 Climbing Houston Center
Wed 10:52:31 PM 29.0111 -95.8942 218° Southwest 198 228 22,300 1,289 Climbing Houston Center
Wed 10:53:31 PM 28.9558 -95.9383 215° Southwest 201 231 23,800 1,289 Climbing Houston Center
Wed 10:54:32 PM 28.9075 -95.9775 215° Southwest 206 237 24,900 1,082 Climbing Houston Center
Wed 10:55:33 PM 28.8594 -96.0153 215° Southwest 208 239 26,000 984 Climbing Houston Center
Wed 10:56:34 PM 28.8111 -96.0544 215° Southwest 212 244 26,900 780 Climbing Houston Center
Wed 10:57:36 PM 28.7608 -96.0953 215° Southwest 219 252 27,600 590 Climbing Houston Center
Wed 10:58:36 PM 28.7089 -96.1364 215° Southwest 225 259 28,100 149 Climbing Houston Center
Wed 10:59:37 PM 28.6528 -96.1825 216° Southwest 245 282 27,900 -98 Descending Houston Center
Wed 11:00:38 PM 28.5911 -96.2311 215° Southwest 264 304 27,900  Level Houston Center
Wed 11:01:39 PM 28.5308 -96.2786 215° Southwest 264 304 27,900  Level Houston Center
Wed 11:02:40 PM 28.4686 -96.3292 216° Southwest 271 312 27,900  Level Houston Center
Wed 11:03:41 PM 28.4072 -96.3783 215° Southwest 270 311 27,900  Level Houston Center
Wed 11:04:42 PM 28.3461 -96.4261 215° Southwest 268 308 27,900  Level Houston Center
Wed 11:05:43 PM 28.2853 -96.4756 216° Southwest 268 308 27,900  Level Houston Center
Wed 11:06:44 PM 28.2244 -96.5222 214° Southwest 266 306 27,900  Level Houston Center
Wed 11:07:45 PM 28.1642 -96.5703 215° Southwest 265 305 27,900  Level Houston Center
Wed 11:08:46 PM 28.1031 -96.6169 214° Southwest 265 305 27,900  Level Houston Center
Wed 11:09:46 PM 28.0317 -96.6753 216° Southwest 264 304 27,900  Level Houston Center
Wed 11:10:47 PM 27.9700 -96.7225 214° Southwest 268 308 27,900  Level Houston Center
Wed 11:11:48 PM 27.9094 -96.7703 215° Southwest 266 306 27,900  Level Houston Center
Wed 11:12:49 PM 27.8478 -96.8192 215° Southwest 269 310 27,900  Level Houston Center
Wed 11:13:50 PM 27.7878 -96.8653 214° Southwest 265 305 27,900  Level Houston Center
Wed 11:14:51 PM 27.7275 -96.9131 215° Southwest 263 303 27,900  Level Houston Center
Wed 11:15:52 PM 27.6667 -96.9597 214° Southwest 263 303 27,900  Level Houston Center
Wed 11:16:53 PM 27.6058 -97.0072 215° Southwest 265 305 27,900  Level Houston Center
Wed 11:17:54 PM 27.5464 -97.0539 215° Southwest 263 303 27,900  Level Houston Center
Wed 11:18:54 PM 27.4872 -97.1000 215° Southwest 259 298 27,900  Level Houston Center
Wed 11:19:55 PM 27.4222 -97.1506 215° Southwest 257 296 27,900  Level Houston Center
Wed 11:20:56 PM 27.3644 -97.1950 214° Southwest 253 291 27,900  Level Houston Center
Wed 11:21:57 PM 27.3069 -97.2397 215° Southwest 251 289 27,900  Level Houston Center
Wed 11:22:58 PM 27.2500 -97.2844 215° Southwest 250 288 27,900  Level Houston Center
Wed 11:23:58 PM 27.1933 -97.3275 214° Southwest 248 285 27,900  Level Houston Center
Wed 11:24:59 PM 27.1358 -97.3719 215° Southwest 249 287 27,900 49 Level Houston Center
Wed 11:26:00 PM 27.0731 -97.4208 215° Southwest 254 292 28,000 49 Climbing Houston Center
Wed 11:27:01 PM 27.0150 -97.4667 215° Southwest 256 295 28,000  Level Houston Center
Wed 11:28:02 PM 26.9522 -97.5139 214° Southwest 253 291 28,000  Level Houston Center
Wed 11:29:02 PM 26.8953 -97.5575 214° Southwest 248 285 28,000  Level Houston Center
Wed 11:30:03 PM 26.8389 -97.6019 215° Southwest 247 284 28,000  Level Houston Center
Wed 11:31:04 PM 26.7844 -97.6417 213° Southwest 243 280 28,000  Level Houston Center
Wed 11:32:05 PM 26.7281 -97.6864 215° Southwest 245 282 28,000  Level Houston Center
Wed 11:33:05 PM 26.6728 -97.7286 214° Southwest 229 264 28,000  Level Houston Center
Wed 11:34:06 PM 26.6122 -97.7744 214° Southwest 242 278 28,000  Level Houston Center
Wed 11:35:07 PM 26.5569 -97.8175 215° Southwest 243 280 28,000  Level Houston Center
Wed 11:36:07 PM 26.5008 -97.8594 214° Southwest 243 280 28,000  Level Houston Center
Wed 11:37:08 PM 26.4564 -97.9122 227° Southwest 235 270 28,000  Level Houston Center
Wed 11:38:08 PM 26.4189 -97.9697 234° Southwest 230 265 28,000  Level Houston Center
Wed 11:39:09 PM 26.3806 -98.0286 234° Southwest 234 269 28,000  Level Houston Center
Wed 11:40:10 PM 26.3403 -98.0911 234° Southwest 232 267 28,000  Level Houston Center
Wed 11:41:10 PM 26.3033 -98.1492 235° Southwest 231 266 28,000  Level Houston Center
Wed 11:42:11 PM 26.2658 -98.2067 234° Southwest 231 266 28,000  Level Houston Center
Wed 11:43:12 PM 26.2283 -98.2644 234° Southwest 230 265 28,000  Level Houston Center
Wed 11:44:12 PM 26.1914 -98.3211 234° Southwest 227 261 28,000  Level Houston Center
Wed 11:45:13 PM 26.1556 -98.3775 235° Southwest 223 257 28,000  Level Houston Center
Wed 11:47:00 PM 26.1383 -98.4932 167° South  Level Estimated
Wed 11:54:00 PM 25.9550 -98.6151 261° West  Level FlightAware Approximate
Wed 11:55:00 PM 25.9459 -98.6800 261° West  Level FlightAware Approximate
Wed 11:56:00 PM 25.9371 -98.7449 261° West  Level FlightAware Approximate
Wed 11:57:00 PM 25.9283 -98.8099 261° West  Level FlightAware Approximate
Wed 11:58:00 PM 25.9195 -98.8748 261° West  Level FlightAware Approximate
Wed 11:59:00 PM 25.9106 -98.9397 261° West  Level FlightAware Approximate
Thu 12:00:00 AM 25.9017 -99.0046 261° West  Level FlightAware Approximate
Thu 12:01:00 AM 25.8932 -99.0695 262° West  Level FlightAware Approximate
Thu 12:02:00 AM 25.8847 -99.1345 262° West  Level FlightAware Approximate
Thu 12:03:00 AM 25.8763 -99.1995 262° West  Level FlightAware Approximate
Thu 12:04:00 AM 25.8678 -99.2644 262° West  Level FlightAware Approximate
Thu 12:05:00 AM 25.8593 -99.3294 262° West  Level FlightAware Approximate
Thu 12:06:00 AM 25.8507 -99.3943 262° West  Level FlightAware Approximate
Thu 12:07:00 AM 25.8500 -99.4599 270° West  Level FlightAware Approximate
Thu 12:08:00 AM 25.8450 -99.5249 257° West  Level FlightAware Approximate
Thu 12:09:00 AM 25.8327 -99.5891 263° West  Level FlightAware Approximate
Thu 12:10:00 AM 25.8255 -99.6542 263° West  Level FlightAware Approximate
Thu 12:11:00 AM 25.8183 -99.7193 263° West  Level FlightAware Approximate
Thu 12:12:00 AM 25.8111 -99.7844 263° West  Level FlightAware Approximate
Thu 12:13:00 AM 25.8038 -99.8495 263° West  Level FlightAware Approximate
Thu 12:14:00 AM 25.7952 -99.9144 260° West  Level FlightAware Approximate
Thu 12:15:00 AM 25.7853 -99.9790 260° West  Level FlightAware Approximate
Thu 12:16:00 AM 25.7754 -100.0437 260° West  Level FlightAware Approximate
Thu 12:17:00 AM 25.7715 -100.1065 310° West  Level FlightAware Approximate
Thu 12:18:00 AM 25.8093 -100.1569 310° West  Level FlightAware Approximate
Thu 12:19:00 AM 25.8431 -100.2107 304° West  Level FlightAware Approximate
Thu 12:20:00 AM 25.8656 -100.2372 304° West  Level Estimated
Thu 12:21:00 AM 25.8656 -100.2372 304° West  Level Estimated
Thu 12:22:00 AM 25.8656 -100.2372 304° West  Level Estimated
Thu 12:23:00 AM 25.8656 -100.2372 304° West  Level Estimated
Thu 12:24:00 AM 25.8656 -100.2372 304° West  Level Estimated
Thu 12:25:00 AM 25.8656 -100.2372 304° West  Level Estimated
Thu 12:26:00 AM 25.8656 -100.2372 304° West  Level Estimated
Thu 12:27:00 AM 25.8656 -100.2372 304° West  Level Estimated
Thu 12:28:00 AM 25.8656 -100.2372 304° West  Level Estimated
Thu 12:29:00 AM 25.8656 -100.2372 304° West  Level Estimated
Thu 12:30:00 AM 25.8656 -100.2372 304° West  Level Estimated
Thu 12:31:00 AM 25.8656 -100.2372 304° West  Level Estimated
Thu 12:32:00 AM 25.8656 -100.2372 304° West  Level Estimated
Thu 12:33:00 AM 25.8656 -100.2372 304° West  Level Estimated
Thu 12:34:00 AM 25.8656 -100.2372 304° West  Level Estimated
Thu 12:35:00 AM 25.8656 -100.2372 304° West  Level Estimated
Thu 12:36:00 AM 25.8656 -100.2372 304° West  Level Estimated
Thu 12:37:00 AM 25.8656 -100.2372 304° West  Level Estimated
Thu 12:38:00 AM 25.8656 -100.2372 304° West  Level Estimated
Thu 12:39:00 AM 25.8656 -100.2372 304° West  Level Estimated

Login

Don't have an account? Register now (free) for customized features, flight alerts, and more!